Time;durP1;ratioP1;P1;durP2;ratioP2;P2;SDS_P1;SDS_P2;PMS_P1;PMS_P2;Temp;Humidity;BMP_temperature;BMP_pressure;BME280_temperature;BME280_humidity;BME280_pressure;Samples;Min_cycle;Max_cycle;Signal;HPM_P1;HPM_P2
2023/03/24 00:00:59;;;;;;;6.28;1.17;;;;;;;6.06;67.84;99489.72;5040524;28;20045;-70
2023/03/24 00:03:28;;;;;;;4.57;0.40;;;;;;;6.05;67.95;99482.84;5036515;28;20496;-70
2023/03/24 00:06:00;;;;;;;7.20;0.50;;;;;;;6.06;67.64;99488.00;5039044;28;20053;-70
2023/03/24 00:08:29;;;;;;;11.52;1.10;;;;;;;6.07;67.70;99494.03;5037461;28;20049;-70
2023/03/24 00:11:00;;;;;;;6.43;0.38;;;;;;;6.06;67.89;99495.78;5035384;28;20049;-69
2023/03/24 00:13:27;;;;;;;6.90;0.30;;;;;;;6.08;67.76;99491.41;5036390;28;20042;-69
2023/03/24 00:15:54;;;;;;;13.98;1.13;;;;;;;6.08;67.76;99495.75;5038461;28;20095;-70
2023/03/24 00:18:24;;;;;;;3.72;0.43;;;;;;;6.10;67.63;99509.53;5035378;28;20040;-69
2023/03/24 00:20:57;;;;;;;8.63;0.63;;;;;;;6.10;67.52;99501.75;5035207;28;20045;-70
2023/03/24 00:23:26;;;;;;;6.18;0.40;;;;;;;6.12;67.71;99505.19;5038412;28;20044;-70
2023/03/24 00:26:02;;;;;;;5.78;0.63;;;;;;;6.13;67.86;99506.03;5041970;28;20056;-70
2023/03/24 00:28:30;;;;;;;6.40;0.40;;;;;;;6.13;67.84;99500.84;5044096;28;20154;-69
2023/03/24 00:30:57;;;;;;;3.05;0.30;;;;;;;6.14;67.75;99518.94;5039849;28;20044;-70
2023/03/24 00:33:24;;;;;;;3.67;0.25;;;;;;;6.15;67.86;99512.91;5039272;28;20049;-70
2023/03/24 00:35:51;;;;;;;4.63;0.63;;;;;;;6.16;67.92;99501.63;5039548;28;20128;-70
2023/03/24 00:38:18;;;;;;;3.83;0.30;;;;;;;6.17;68.01;99502.47;5036065;28;20045;-69
2023/03/24 00:40:49;;;;;;;4.68;0.40;;;;;;;6.18;68.00;99506.78;5043072;28;20049;-70
2023/03/24 00:43:16;;;;;;;5.07;1.27;;;;;;;6.19;68.19;99516.28;5039137;28;20520;-70
2023/03/24 00:45:45;;;;;;;7.88;0.68;;;;;;;6.19;68.13;99522.31;5038412;28;20053;-70
2023/03/24 00:48:12;;;;;;;8.27;0.50;;;;;;;6.20;68.19;99517.97;5036125;28;20069;-70
2023/03/24 00:50:40;;;;;;;5.38;0.47;;;;;;;6.21;67.94;99517.94;5032720;28;20065;-69
2023/03/24 00:53:08;;;;;;;3.33;0.70;;;;;;;6.22;68.17;99523.97;5042480;28;20053;-70
2023/03/24 00:55:36;;;;;;;4.63;0.47;;;;;;;6.23;68.08;99523.09;5040136;28;20049;-69
2023/03/24 00:58:05;;;;;;;7.40;0.82;;;;;;;6.24;68.06;99519.63;5024311;28;20042;-70
2023/03/24 01:00:32;;;;;;;3.90;0.40;;;;;;;6.24;68.08;99523.06;5034565;28;20052;-69
2023/03/24 01:03:01;;;;;;;8.35;0.60;;;;;;;6.26;68.26;99528.22;5037650;28;20412;-72
2023/03/24 01:05:30;;;;;;;4.72;0.30;;;;;;;6.27;68.05;99522.16;5033343;28;20053;-70
2023/03/24 01:07:58;;;;;;;8.05;1.10;;;;;;;6.21;68.12;99519.69;5036163;28;20071;-70
2023/03/24 01:10:29;;;;;;;12.88;0.55;;;;;;;6.26;68.27;99523.03;5041113;28;20045;-69
2023/03/24 01:12:58;;;;;;;10.48;1.77;;;;;;;6.29;68.25;99518.66;5030476;28;21768;-70
2023/03/24 01:15:29;;;;;;;13.52;0.43;;;;;;;6.30;68.32;99519.50;5040309;28;20045;-70
2023/03/24 01:17:56;;;;;;;7.25;0.80;;;;;;;6.31;68.20;99519.44;5033480;28;20500;-70
2023/03/24 01:20:24;;;;;;;7.90;0.55;;;;;;;6.30;68.43;99517.75;5042101;28;20497;-70
2023/03/24 01:22:51;;;;;;;9.95;0.88;;;;;;;6.31;68.33;99516.00;5040406;28;20071;-70
2023/03/24 01:25:20;;;;;;;14.43;1.58;;;;;;;6.33;68.18;99513.41;5035707;28;20041;-70
2023/03/24 01:27:48;;;;;;;10.52;2.50;;;;;;;6.35;68.45;99511.59;5036872;28;20693;-70
2023/03/24 01:30:17;;;;;;;10.13;0.80;;;;;;;6.35;68.14;99501.22;5028032;28;20059;-70
2023/03/24 01:32:45;;;;;;;6.50;0.40;;;;;;;6.35;68.38;99507.28;5038480;28;20050;-70
2023/03/24 01:35:13;;;;;;;9.77;0.47;;;;;;;6.35;68.19;99504.69;5037737;28;20045;-70
2023/03/24 01:37:41;;;;;;;4.45;0.40;;;;;;;6.36;68.34;99511.56;5039965;28;20047;-70
2023/03/24 01:40:10;;;;;;;8.45;0.68;;;;;;;6.36;68.36;99502.94;5038402;28;20047;-70
2023/03/24 01:42:39;;;;;;;7.53;0.50;;;;;;;6.38;68.57;99515.00;5039956;28;20055;-70
2023/03/24 01:45:39;;;;;;;5.18;0.45;;;;;;;6.41;68.53;99506.31;5036143;28;20053;-70
2023/03/24 01:48:11;;;;;;;7.53;0.98;;;;;;;6.41;68.36;99496.78;5037431;28;20053;-69
2023/03/24 01:50:40;;;;;;;14.23;1.70;;;;;;;6.42;68.35;99489.84;5037309;28;20060;-69
2023/03/24 01:53:08;;;;;;;4.80;0.60;;;;;;;6.43;68.13;99494.13;5037613;28;20049;-69
2023/03/24 01:55:35;;;;;;;7.13;0.30;;;;;;;6.44;68.04;99495.84;5038127;28;20493;-70
2023/03/24 01:58:03;;;;;;;10.15;0.73;;;;;;;6.41;68.21;99493.34;5041067;28;20057;-69
2023/03/24 02:00:30;;;;;;;12.13;1.05;;;;;;;6.43;67.87;99489.81;5030976;28;20063;-70
2023/03/24 02:03:02;;;;;;;16.25;1.25;;;;;;;6.44;67.97;99491.53;5036845;28;20045;-69
2023/03/24 02:05:33;;;;;;;11.38;1.20;;;;;;;6.44;67.97;99490.66;5032702;28;20103;-70
2023/03/24 02:08:05;;;;;;;10.13;0.55;;;;;;;6.42;67.93;99498.47;5040478;28;20485;-70
2023/03/24 02:10:36;;;;;;;8.70;0.80;;;;;;;6.44;68.18;99506.22;5041168;28;20045;-70
2023/03/24 02:13:03;;;;;;;9.13;0.82;;;;;;;6.44;68.13;99499.31;5037864;28;20078;-69
2023/03/24 02:15:32;;;;;;;12.27;1.25;;;;;;;6.43;67.91;99502.78;5040999;28;20045;-69
2023/03/24 02:18:06;;;;;;;9.32;0.82;;;;;;;6.46;68.16;99502.72;5031259;28;20049;-69
2023/03/24 02:21:03;;;;;;;9.32;0.88;;;;;;;6.45;68.28;99501.00;5041212;28;20081;-69
2023/03/24 02:24:23;;;;;;;9.68;1.83;;;;;;;6.47;67.91;99496.63;5037017;28;20059;-69
2023/03/24 02:27:10;;;;;;;11.57;0.52;;;;;;;6.46;68.28;99494.94;5033046;28;20045;-69
2023/03/24 02:30:10;;;;;;;7.22;0.50;;;;;;;6.47;67.98;99490.59;5033789;28;20450;-69
2023/03/24 02:33:05;;;;;;;13.57;0.75;;;;;;;6.47;68.07;99490.59;5040362;28;20068;-69
2023/03/24 02:35:57;;;;;;;12.25;2.17;;;;;;;6.47;68.10;99486.25;5030099;28;20095;-70
2023/03/24 02:39:00;;;;;;;11.10;1.25;;;;;;;6.48;68.24;99480.16;5038039;28;20063;-71
2023/03/24 02:41:34;;;;;;;7.90;1.13;;;;;;;6.48;68.21;99480.16;5037972;28;20041;-69
2023/03/24 02:44:09;;;;;;;9.60;1.20;;;;;;;6.49;68.33;99476.72;5022621;28;20045;-69
2023/03/24 02:46:42;;;;;;;5.32;0.60;;;;;;;6.51;68.15;99477.50;5032691;28;20044;-69
2023/03/24 02:49:19;;;;;;;9.45;1.42;;;;;;;6.51;68.30;99474.91;5033893;28;20091;-71
2023/03/24 02:51:52;;;;;;;5.13;0.70;;;;;;;6.51;68.34;99468.88;5034750;28;20051;-71
2023/03/24 02:54:27;;;;;;;8.70;0.77;;;;;;;6.51;68.35;99459.34;5032709;28;20048;-71
2023/03/24 02:56:57;;;;;;;;;;;;;;;6.52;68.24;99471.44;5042047;28;20053;-71
2023/03/24 02:59:36;;;;;;;6.05;0.40;;;;;;;6.52;68.08;99480.97;5035830;28;19943;-71
2023/03/24 03:02:09;;;;;;;12.82;0.85;;;;;;;6.51;68.05;99487.88;5039060;28;20128;-71
2023/03/24 03:04:45;;;;;;;6.70;0.70;;;;;;;6.50;68.08;99486.19;5038202;28;20055;-71
2023/03/24 03:07:15;;;;;;;10.48;0.90;;;;;;;6.50;67.86;99486.19;5036117;28;20041;-71
2023/03/24 03:09:49;;;;;;;5.43;0.43;;;;;;;6.49;68.02;99487.09;5027131;28;20057;-72
2023/03/24 03:12:19;;;;;;;17.17;0.60;;;;;;;6.49;67.98;99488.84;5038552;28;20045;-71
2023/03/24 03:14:51;;;;;;;12.77;1.15;;;;;;;6.48;68.13;99493.16;5037101;28;20444;-71
2023/03/24 03:17:22;;;;;;;8.15;1.30;;;;;;;6.47;68.04;99491.44;5034672;28;20042;-71
2023/03/24 03:19:54;;;;;;;15.77;1.52;;;;;;;6.46;67.94;99478.50;5033730;28;20497;-71
2023/03/24 03:22:24;;;;;;;12.27;0.45;;;;;;;6.44;67.87;99472.50;5030853;28;20047;-71
2023/03/24 03:24:54;;;;;;;10.15;1.33;;;;;;;6.43;68.00;99488.94;5035503;28;20045;-71
2023/03/24 03:27:26;;;;;;;7.28;0.40;;;;;;;6.42;67.95;99488.09;5038106;28;20051;-71
2023/03/24 03:29:56;;;;;;;6.93;0.65;;;;;;;6.39;67.80;99482.13;5034970;28;20559;-71
2023/03/24 03:32:29;;;;;;;9.02;0.47;;;;;;;6.39;67.96;99480.38;5032115;28;20053;-71
2023/03/24 03:35:00;;;;;;;9.30;0.80;;;;;;;6.38;67.98;99485.63;5037280;28;20049;-72
2023/03/24 03:37:33;;;;;;;13.60;0.60;;;;;;;6.37;68.01;99484.75;5030516;28;20053;-71
2023/03/24 03:40:07;;;;;;;13.50;1.40;;;;;;;6.35;68.24;99490.84;5033313;28;20202;-71
2023/03/24 03:42:35;;;;;;;6.82;0.77;;;;;;;6.35;68.30;99494.31;5033024;28;20386;-69
2023/03/24 03:45:03;;;;;;;8.57;1.00;;;;;;;6.34;68.19;99495.19;5036578;28;20472;-69
2023/03/24 03:47:31;;;;;;;13.57;0.60;;;;;;;6.31;68.19;99493.50;5037831;28;20049;-70
2023/03/24 03:49:58;;;;;;;9.75;0.60;;;;;;;6.33;68.17;99510.78;5003632;28;20052;-69
2023/03/24 03:52:25;;;;;;;12.57;0.90;;;;;;;6.31;68.25;99513.41;5033571;28;20041;-69
2023/03/24 03:54:54;;;;;;;3.33;0.47;;;;;;;6.31;68.22;99508.22;5032842;28;20057;-64
2023/03/24 03:57:21;;;;;;;6.07;0.47;;;;;;;6.30;68.07;99516.91;5037530;28;20045;-74
2023/03/24 03:59:50;;;;;;;9.80;1.30;;;;;;;6.27;68.13;99515.22;5039276;28;20045;-75
2023/03/24 04:02:32;;;;;;;7.90;0.85;;;;;;;6.26;68.09;99513.53;5040579;28;20045;-74
2023/03/24 04:05:26;;;;;;;11.77;0.60;;;;;;;6.26;68.03;99515.25;5039205;28;20086;-74
2023/03/24 04:08:18;;;;;;;13.35;0.60;;;;;;;6.24;68.24;99510.09;5033916;28;20053;-75
2023/03/24 04:11:09;;;;;;;6.00;0.50;;;;;;;6.22;68.20;99504.09;5037606;28;20508;-74
2023/03/24 04:13:44;;;;;;;6.75;1.67;;;;;;;6.22;68.06;99516.19;5033755;28;20112;-74
2023/03/24 04:16:18;;;;;;;13.02;0.60;;;;;;;6.18;67.96;99505.06;5030529;28;20438;-74
2023/03/24 04:18:57;;;;;;;16.30;2.25;;;;;;;6.19;68.20;99511.09;5037212;28;20051;-74
2023/03/24 04:21:47;;;;;;;11.95;1.00;;;;;;;6.18;68.35;99511.97;5032583;28;20038;-74
2023/03/24 04:24:27;;;;;;;7.05;0.75;;;;;;;6.15;68.45;99505.13;5038257;28;20130;-75
2023/03/24 04:26:59;;;;;;;14.57;1.25;;;;;;;6.15;68.65;99512.00;5032480;28;20091;-73
2023/03/24 04:29:36;;;;;;;4.97;0.40;;;;;;;6.15;68.45;99510.31;5032846;28;20102;-72
2023/03/24 04:32:18;;;;;;;8.13;0.80;;;;;;;6.15;68.63;99514.59;5033191;28;20535;-74
2023/03/24 04:34:49;;;;;;;10.75;0.75;;;;;;;6.13;68.52;99509.47;5037194;28;20049;-72
2023/03/24 04:37:21;;;;;;;6.53;0.60;;;;;;;6.13;68.38;99506.88;5043126;28;20091;-72
2023/03/24 04:39:52;;;;;;;8.98;0.57;;;;;;;6.13;68.73;99511.22;5033393;28;20172;-74
2023/03/24 04:42:25;;;;;;;5.22;0.30;;;;;;;6.14;68.71;99503.38;5037902;28;20045;-75
2023/03/24 04:44:56;;;;;;;7.88;0.63;;;;;;;6.13;68.92;99506.88;5038351;28;20049;-74
2023/03/24 04:47:28;;;;;;;8.10;0.70;;;;;;;6.13;69.03;99511.22;5040667;28;20437;-74
2023/03/24 04:50:01;;;;;;;4.68;0.55;;;;;;;6.14;68.80;99510.31;5036929;28;20049;-74
2023/03/24 04:52:28;;;;;;;7.68;0.52;;;;;;;6.12;68.98;99510.38;5043615;28;20115;-75
2023/03/24 04:54:55;;;;;;;11.25;0.65;;;;;;;6.12;69.03;99510.38;5041588;28;20990;-75
2023/03/24 04:57:22;;;;;;;6.30;0.57;;;;;;;6.12;69.03;99512.06;5037529;28;20049;-74
2023/03/24 04:59:49;;;;;;;12.18;1.05;;;;;;;6.12;69.09;99515.56;5038623;28;20041;-74
2023/03/24 05:02:15;;;;;;;8.73;0.50;;;;;;;6.12;69.10;99515.56;5041512;28;20041;-74
2023/03/24 05:04:44;;;;;;;5.97;0.60;;;;;;;6.13;69.35;99516.41;5034987;28;20053;-73
2023/03/24 05:07:11;;;;;;;6.40;0.98;;;;;;;6.14;69.29;99523.28;5039394;28;20054;-73
2023/03/24 05:09:38;;;;;;;12.30;0.80;;;;;;;6.14;69.30;99518.09;5040182;28;20056;-75
2023/03/24 05:12:05;;;;;;;5.72;0.40;;;;;;;6.13;69.23;99511.22;5042443;28;20500;-72
2023/03/24 05:14:32;;;;;;;9.27;0.50;;;;;;;6.15;69.36;99514.59;5037883;28;20076;-74
2023/03/24 05:16:59;;;;;;;13.13;0.55;;;;;;;6.15;69.45;99505.13;5039042;28;20059;-72
2023/03/24 05:19:26;;;;;;;10.65;0.80;;;;;;;6.16;69.44;99505.97;5037464;28;20056;-72
2023/03/24 05:21:55;;;;;;;11.38;0.45;;;;;;;6.17;69.34;99511.09;5038973;28;20052;-72
2023/03/24 05:24:21;;;;;;;9.80;0.70;;;;;;;6.17;69.39;99500.72;5046742;28;20052;-73
2023/03/24 05:26:48;;;;;;;9.05;0.70;;;;;;;6.18;69.17;99493.84;5034778;28;20045;-73
2023/03/24 05:29:15;;;;;;;5.80;0.77;;;;;;;6.17;69.31;99498.13;5038523;28;20049;-73
2023/03/24 05:31:43;;;;;;;8.35;0.90;;;;;;;6.19;69.28;99496.38;5035591;28;20053;-73
2023/03/24 05:34:10;;;;;;;7.32;0.47;;;;;;;6.19;69.15;99491.19;5038214;28;20052;-73
2023/03/24 05:36:37;;;;;;;8.02;0.47;;;;;;;6.19;69.09;99493.78;5037957;28;20045;-75
2023/03/24 05:39:06;;;;;;;7.15;0.60;;;;;;;6.21;69.26;99496.34;5038924;28;20098;-72
2023/03/24 05:41:33;;;;;;;8.05;0.50;;;;;;;6.21;69.20;99499.81;5036167;28;20837;-73
2023/03/24 05:43:59;;;;;;;5.13;0.32;;;;;;;6.21;69.19;99494.59;5041007;28;20041;-73
2023/03/24 05:46:26;;;;;;;8.00;0.50;;;;;;;6.22;69.18;99493.72;5037598;28;20123;-73
2023/03/24 05:48:53;;;;;;;11.23;0.52;;;;;;;6.23;69.25;99486.78;5041312;28;20103;-72
2023/03/24 05:51:20;;;;;;;4.75;0.47;;;;;;;6.23;69.30;99487.66;5028698;28;20049;-74
2023/03/24 05:53:47;;;;;;;6.57;0.93;;;;;;;6.23;69.17;99492.84;5027450;28;20456;-73
2023/03/24 05:56:15;;;;;;;5.70;0.40;;;;;;;6.25;69.34;99490.19;5034620;28;20056;-73
2023/03/24 05:58:43;;;;;;;8.73;0.75;;;;;;;6.25;69.34;99485.03;5039624;28;20058;-72
2023/03/24 06:01:10;;;;;;;8.75;0.40;;;;;;;6.26;69.25;99486.72;5036592;28;20044;-73
2023/03/24 06:03:39;;;;;;;14.65;0.82;;;;;;;6.27;69.22;99483.25;5037828;28;20050;-76
2023/03/24 06:06:07;;;;;;;11.35;1.23;;;;;;;6.28;69.37;99484.94;5031560;28;20042;-72
2023/03/24 06:08:34;;;;;;;8.48;0.55;;;;;;;6.29;69.24;99491.88;5033289;28;20585;-73
2023/03/24 06:11:02;;;;;;;7.47;0.80;;;;;;;6.28;69.23;99482.34;5039700;28;20489;-73
2023/03/24 06:13:31;;;;;;;4.60;0.30;;;;;;;6.31;69.33;99482.28;5035957;28;20060;-73
2023/03/24 06:15:58;;;;;;;14.55;0.68;;;;;;;6.32;69.31;99486.59;5037882;28;21236;-73
2023/03/24 06:18:26;;;;;;;14.80;0.77;;;;;;;6.33;69.45;99477.94;5037252;28;20045;-74
2023/03/24 06:20:55;;;;;;;7.63;1.20;;;;;;;6.33;69.44;99480.53;5039277;28;20045;-73
2023/03/24 06:23:24;;;;;;;8.35;0.70;;;;;;;6.35;69.31;99481.34;5032317;28;20053;-73
2023/03/24 06:25:52;;;;;;;10.75;0.70;;;;;;;6.37;69.57;99476.13;5039619;28;20049;-73
2023/03/24 06:28:19;;;;;;;6.00;0.50;;;;;;;6.39;69.58;99477.78;5037835;28;20046;-73
2023/03/24 06:30:48;;;;;;;7.70;0.50;;;;;;;6.42;69.42;99479.47;5036643;28;20057;-73
2023/03/24 06:33:16;;;;;;;9.68;0.70;;;;;;;6.43;69.43;99478.56;5034908;28;20064;-74
2023/03/24 06:35:43;;;;;;;9.43;0.80;;;;;;;6.44;69.59;99485.47;5036103;28;20406;-73
2023/03/24 06:38:10;;;;;;;8.32;1.08;;;;;;;6.45;69.45;99488.03;5025573;28;20041;-72
2023/03/24 06:40:37;;;;;;;5.97;0.70;;;;;;;6.48;69.50;99492.28;5030158;28;20485;-73
2023/03/24 06:43:04;;;;;;;5.32;0.98;;;;;;;6.50;69.86;99480.16;5035166;28;20104;-73
2023/03/24 06:45:31;;;;;;;10.70;2.35;;;;;;;6.46;69.67;99468.13;5036091;28;20049;-74
2023/03/24 06:48:00;;;;;;;16.85;1.23;;;;;;;6.52;69.60;99481.81;5042900;28;20409;-74
2023/03/24 06:50:31;;;;;;;8.15;0.60;;;;;;;6.53;69.67;99480.94;5038661;28;20422;-74
2023/03/24 06:52:58;;;;;;;12.23;0.65;;;;;;;6.58;69.53;99470.47;5038265;28;20050;-73
2023/03/24 06:55:26;;;;;;;16.35;3.08;;;;;;;6.59;69.80;99472.16;5032549;28;20404;-74
2023/03/24 06:57:53;;;;;;;14.63;1.73;;;;;;;6.62;69.47;99468.63;5039728;28;20132;-73
2023/03/24 07:00:20;;;;;;;7.85;0.88;;;;;;;6.62;69.77;99464.28;5036314;28;20046;-73
2023/03/24 07:02:47;;;;;;;8.15;1.15;;;;;;;6.66;70.12;99471.13;5036688;28;20053;-73
2023/03/24 07:05:16;;;;;;;9.65;1.23;;;;;;;6.67;69.82;99470.22;5034555;28;20057;-74
2023/03/24 07:07:43;;;;;;;11.68;1.13;;;;;;;6.72;69.69;99467.53;5034810;28;20049;-74
2023/03/24 07:10:11;;;;;;;9.73;1.70;;;;;;;6.74;69.56;99468.34;5035210;28;20056;-74
2023/03/24 07:12:38;;;;;;;8.55;1.00;;;;;;;6.76;69.68;99470.00;5038830;28;20158;-73
2023/03/24 07:15:08;;;;;;;11.48;0.70;;;;;;;6.78;70.11;99470.00;5028187;28;20049;-73
2023/03/24 07:17:35;;;;;;;12.68;0.80;;;;;;;6.80;69.74;99462.16;5035904;28;20747;-73
2023/03/24 07:20:05;;;;;;;8.15;0.98;;;;;;;6.83;69.57;99481.13;5031952;28;20049;-73
2023/03/24 07:22:34;;;;;;;5.53;1.00;;;;;;;6.85;69.48;99476.72;5030507;28;20073;-73
2023/03/24 07:25:03;;;;;;;4.97;0.60;;;;;;;6.88;69.44;99481.00;5035321;28;20095;-74
2023/03/24 07:27:31;;;;;;;12.35;0.80;;;;;;;6.88;69.53;99479.25;5037795;28;20052;-74
2023/03/24 07:29:58;;;;;;;5.53;0.85;;;;;;;6.92;69.50;99477.44;5031337;28;20192;-73
2023/03/24 07:32:25;;;;;;;8.18;0.82;;;;;;;6.93;69.67;99474.78;5032716;28;20042;-73
2023/03/24 07:34:52;;;;;;;11.88;1.33;;;;;;;6.96;69.74;99476.47;5039834;28;20045;-73
2023/03/24 07:37:19;;;;;;;10.65;0.60;;;;;;;6.99;69.77;99485.03;5037907;28;20045;-73
2023/03/24 07:39:47;;;;;;;12.55;0.75;;;;;;;7.01;69.34;99482.41;5033694;28;20052;-73
2023/03/24 07:42:14;;;;;;;16.73;2.13;;;;;;;7.05;69.49;99475.38;5026821;28;20684;-72
2023/03/24 07:44:41;;;;;;;13.13;1.50;;;;;;;7.09;69.32;99474.44;5033606;28;20037;-74
2023/03/24 07:47:08;;;;;;;11.18;0.90;;;;;;;7.11;69.51;99483.03;5039097;28;20805;-75
2023/03/24 07:49:34;;;;;;;6.47;1.23;;;;;;;7.15;69.37;99487.25;5035380;28;20504;-74
2023/03/24 07:52:05;;;;;;;17.27;2.40;;;;;;;7.18;69.40;99490.63;5025394;28;20049;-76
2023/03/24 07:54:32;;;;;;;14.50;1.00;;;;;;;7.21;69.22;99485.34;5030229;28;20143;-75
2023/03/24 07:57:00;;;;;;;16.38;1.80;;;;;;;7.24;68.97;99489.63;5036916;28;20765;-74
2023/03/24 07:59:27;;;;;;;7.75;1.08;;;;;;;7.28;68.93;99485.19;5031515;28;20046;-75
2023/03/24 08:01:54;;;;;;;11.85;1.00;;;;;;;7.30;69.15;99486.88;5031387;28;20056;-75
2023/03/24 08:04:21;;;;;;;5.93;0.73;;;;;;;7.33;68.97;99479.00;5027729;28;20063;-74
2023/03/24 08:06:48;;;;;;;8.68;1.48;;;;;;;7.35;69.06;99481.56;5031351;28;20051;-74
2023/03/24 08:09:15;;;;;;;17.38;2.80;;;;;;;7.34;68.99;99470.31;5039058;28;20073;-76
2023/03/24 08:11:42;;;;;;;11.40;0.90;;;;;;;7.39;69.08;99473.63;5036747;28;20057;-77
2023/03/24 08:14:11;;;;;;;7.68;0.80;;;;;;;7.42;68.84;99473.53;5032321;28;20048;-76
2023/03/24 08:16:38;;;;;;;10.23;1.52;;;;;;;7.43;69.10;99480.47;5043498;28;20049;-77
2023/03/24 08:19:05;;;;;;;12.75;1.13;;;;;;;7.47;68.91;99475.19;5034068;28;20718;-76
2023/03/24 08:21:32;;;;;;;7.40;0.90;;;;;;;7.49;68.66;99479.44;5036916;28;20099;-79
2023/03/24 08:23:59;;;;;;;8.80;1.23;;;;;;;7.51;68.89;99477.63;5036534;28;20481;-76
2023/03/24 08:26:26;;;;;;;10.50;0.73;;;;;;;7.55;68.92;99473.25;5035954;28;20041;-76
2023/03/24 08:28:53;;;;;;;14.20;1.05;;;;;;;7.58;68.39;99462.75;5038245;28;20526;-75
2023/03/24 08:31:21;;;;;;;13.98;1.98;;;;;;;7.60;68.40;99461.81;5038641;28;20055;-77
2023/03/24 08:33:48;;;;;;;16.52;0.93;;;;;;;7.63;68.53;99466.94;5040256;28;20393;-77
2023/03/24 08:36:15;;;;;;;10.65;2.92;;;;;;;7.66;68.77;99460.81;5039002;28;20038;-75
2023/03/24 08:38:42;;;;;;;12.20;0.93;;;;;;;7.69;68.66;99465.06;5038276;28;21311;-76
2023/03/24 08:41:09;;;;;;;8.45;0.90;;;;;;;7.71;68.25;99476.25;5040768;28;20615;-80
2023/03/24 08:43:37;;;;;;;7.78;0.65;;;;;;;7.75;68.24;99459.69;5039814;28;20382;-76
2023/03/24 08:46:07;;;;;;;6.03;0.57;;;;;;;7.71;68.25;99450.25;5050173;28;20485;-75
2023/03/24 08:48:38;;;;;;;7.53;0.95;;;;;;;7.81;68.40;99462.13;5039067;28;20056;-75
2023/03/24 08:51:11;;;;;;;9.70;0.80;;;;;;;7.84;68.24;99460.28;5049958;28;20051;-77
2023/03/24 08:53:38;;;;;;;4.80;0.70;;;;;;;7.84;68.51;99455.06;5038337;28;20053;-78
2023/03/24 08:56:05;;;;;;;10.13;1.13;;;;;;;7.88;68.20;99461.91;5046701;28;20119;-78
2023/03/24 08:58:32;;;;;;;9.32;1.58;;;;;;;7.91;68.42;99458.34;5037092;28;20044;-74
2023/03/24 09:00:59;;;;;;;4.70;0.82;;;;;;;7.94;68.06;99460.00;5044425;28;20052;-76
2023/03/24 09:03:26;;;;;;;10.77;1.25;;;;;;;7.97;68.12;99454.72;5040045;28;20049;-81
2023/03/24 09:05:57;;;;;;;8.75;0.80;;;;;;;8.01;68.23;99457.19;5044351;28;20049;-76
2023/03/24 09:08:24;;;;;;;10.75;0.73;;;;;;;8.03;67.59;99446.75;5041931;28;20132;-76
2023/03/24 09:10:51;;;;;;;7.45;1.08;;;;;;;8.08;67.82;99447.44;5037379;28;20120;-76
2023/03/24 09:13:20;;;;;;;9.45;0.90;;;;;;;8.09;68.19;99438.78;5040868;28;20053;-76
2023/03/24 09:15:47;;;;;;;5.55;1.42;;;;;;;8.12;67.90;99433.47;5044779;28;20139;-75
2023/03/24 09:18:14;;;;;;;12.02;1.00;;;;;;;8.15;67.89;99424.72;5033951;28;20049;-76
2023/03/24 09:20:41;;;;;;;8.93;0.60;;;;;;;8.17;68.22;99416.00;5040655;28;20053;-77
2023/03/24 09:23:10;;;;;;;10.73;0.82;;;;;;;8.19;68.18;99406.38;5040928;28;20048;-76
2023/03/24 09:25:37;;;;;;;11.90;0.70;;;;;;;8.23;67.79;99409.75;5042536;28;20060;-76
2023/03/24 09:28:04;;;;;;;10.82;1.55;;;;;;;8.25;67.28;99411.41;5041658;28;20053;-77
2023/03/24 09:30:31;;;;;;;8.05;0.60;;;;;;;8.28;67.22;99397.44;5042564;28;20045;-77
2023/03/24 09:32:58;;;;;;;7.93;0.70;;;;;;;8.33;67.72;99401.59;5040083;28;20444;-77
2023/03/24 09:35:26;;;;;;;9.63;0.93;;;;;;;8.39;67.42;99402.34;5037573;28;20064;-76
2023/03/24 09:37:53;;;;;;;8.52;0.65;;;;;;;8.41;67.60;99390.97;5043428;28;20103;-76
2023/03/24 09:40:25;;;;;;;5.88;0.90;;;;;;;8.47;67.76;99389.94;5040328;28;20535;-76
2023/03/24 09:42:56;;;;;;;9.55;0.65;;;;;;;8.50;67.72;99379.44;5037203;28;20429;-76
2023/03/24 09:45:26;;;;;;;9.43;0.60;;;;;;;8.50;67.14;99372.47;5042258;28;20596;-76
2023/03/24 09:47:58;;;;;;;14.25;1.40;;;;;;;8.58;66.62;99374.81;5043483;28;20042;-77
2023/03/24 09:50:28;;;;;;;12.48;1.63;;;;;;;8.61;66.91;99361.72;5043786;28;20057;-77
2023/03/24 09:52:59;;;;;;;16.25;0.80;;;;;;;8.66;67.15;99362.41;5037103;28;20132;-77
2023/03/24 09:55:29;;;;;;;10.40;0.70;;;;;;;8.69;67.09;99356.25;5040888;28;20132;-77
2023/03/24 09:57:59;;;;;;;11.27;0.80;;;;;;;8.74;67.07;99352.59;5025554;28;20497;-77
2023/03/24 10:00:28;;;;;;;12.02;0.82;;;;;;;8.77;67.03;99343.84;5047362;28;20044;-78
2023/03/24 10:03:00;;;;;;;9.40;0.88;;;;;;;8.80;66.79;99345.50;5043262;28;20044;-77
2023/03/24 10:05:35;;;;;;;13.40;1.13;;;;;;;8.82;66.54;99336.69;5043670;28;20048;-79
2023/03/24 10:08:11;;;;;;;14.65;2.92;;;;;;;8.86;66.16;99343.50;5040226;28;20059;-77
2023/03/24 10:10:47;;;;;;;15.25;1.30;;;;;;;8.89;66.22;99326.94;5043506;28;20040;-77
2023/03/24 10:13:20;;;;;;;14.43;1.20;;;;;;;8.91;65.62;99328.59;5040974;28;20053;-77
2023/03/24 10:15:55;;;;;;;7.22;0.50;;;;;;;8.93;65.53;99331.13;5040254;28;20052;-76
2023/03/24 10:18:34;;;;;;;6.97;0.73;;;;;;;8.94;65.54;99327.63;5040584;28;20045;-77
2023/03/24 10:21:09;;;;;;;10.73;0.95;;;;;;;8.95;65.67;99321.50;5045041;28;20738;-77
2023/03/24 10:23:40;;;;;;;5.10;0.70;;;;;;;8.97;65.72;99323.16;5041120;28;20081;-77
2023/03/24 10:26:24;;;;;;;8.13;0.43;;;;;;;8.96;65.10;99323.19;5038393;28;20045;-78
2023/03/24 10:29:01;;;;;;;12.73;1.35;;;;;;;8.94;65.48;99318.06;5036665;28;20045;-76
2023/03/24 10:31:31;;;;;;;8.88;0.88;;;;;;;8.93;64.88;99318.09;5038890;28;20044;-78
2023/03/24 10:33:59;;;;;;;9.10;1.27;;;;;;;8.90;65.10;99307.78;5041864;28;20049;-76
2023/03/24 10:36:28;;;;;;;9.73;0.45;;;;;;;8.88;65.08;99302.66;5040715;28;20048;-76
2023/03/24 10:38:55;;;;;;;7.38;0.55;;;;;;;8.87;64.73;99302.69;5033962;28;20057;-77
2023/03/24 10:41:26;;;;;;;11.65;0.82;;;;;;;8.78;65.10;99290.84;5040512;28;20069;-77
2023/03/24 10:43:56;;;;;;;14.45;2.05;;;;;;;8.83;65.06;99306.31;5044798;28;20080;-76
2023/03/24 10:46:25;;;;;;;8.65;1.02;;;;;;;8.78;64.65;99298.66;5052453;28;20041;-77
2023/03/24 10:48:54;;;;;;;10.65;1.23;;;;;;;8.77;64.57;99305.63;5043781;28;20045;-77
2023/03/24 10:51:26;;;;;;;11.43;1.20;;;;;;;8.75;64.40;99299.63;5042966;28;20037;-78
2023/03/24 10:54:11;;;;;;;13.07;0.70;;;;;;;8.73;64.53;99296.22;5038049;28;20041;-76
2023/03/24 10:56:40;;;;;;;9.57;0.70;;;;;;;8.64;64.67;99285.28;5047362;28;20103;-77
2023/03/24 10:59:20;;;;;;;12.85;0.88;;;;;;;8.71;64.65;99292.81;5047404;28;20050;-77
2023/03/24 11:01:47;;;;;;;10.60;1.63;;;;;;;8.69;64.73;99286.81;5041470;28;20044;-78
2023/03/24 11:04:17;;;;;;;7.38;0.93;;;;;;;8.67;64.71;99283.41;5038676;28;20052;-77
2023/03/24 11:06:57;;;;;;;7.78;1.05;;;;;;;8.67;64.94;99285.16;5040902;28;20060;-78
2023/03/24 11:09:25;;;;;;;12.55;0.85;;;;;;;8.65;64.95;99280.03;5041874;28;20048;-77
2023/03/24 11:11:53;;;;;;;6.35;0.88;;;;;;;8.64;64.76;99277.47;5040260;28;20071;-77
2023/03/24 11:14:24;;;;;;;8.02;0.70;;;;;;;8.64;64.94;99267.06;5039110;28;20041;-77
2023/03/24 11:16:52;;;;;;;12.10;1.15;;;;;;;8.60;64.71;99261.09;5042936;28;20141;-77
2023/03/24 11:19:21;;;;;;;7.80;0.82;;;;;;;8.57;65.16;99253.41;5034498;28;20045;-75
2023/03/24 11:21:49;;;;;;;11.20;0.85;;;;;;;8.55;64.52;99250.84;5028089;28;20533;-75
2023/03/24 11:24:18;;;;;;;12.25;0.70;;;;;;;8.53;64.82;99247.44;5034019;28;20048;-74
2023/03/24 11:26:50;;;;;;;11.07;1.15;;;;;;;8.51;65.04;99245.81;5032581;28;20045;-76
2023/03/24 11:29:23;;;;;;;10.02;1.48;;;;;;;8.51;65.04;99238.84;5037042;28;20056;-76
2023/03/24 11:31:56;;;;;;;12.40;1.05;;;;;;;8.51;64.81;99238.00;5040426;28;20140;-77
2023/03/24 11:34:25;;;;;;;11.63;0.95;;;;;;;8.49;64.90;99230.25;5043065;28;20049;-77
2023/03/24 11:36:55;;;;;;;11.00;1.40;;;;;;;8.51;64.71;99225.00;5036842;28;20053;-77
2023/03/24 11:39:24;;;;;;;9.65;1.50;;;;;;;8.50;64.94;99213.72;5035654;28;20076;-77
2023/03/24 11:42:03;;;;;;;8.27;0.70;;;;;;;8.52;64.98;99218.88;5047024;28;20095;-77
2023/03/24 11:44:43;;;;;;;9.90;0.80;;;;;;;8.51;64.99;99222.41;5044885;28;20657;-77
2023/03/24 11:47:14;;;;;;;15.13;2.15;;;;;;;8.51;64.79;99206.78;5039773;28;20051;-77
2023/03/24 11:49:46;;;;;;;9.88;1.25;;;;;;;8.53;64.97;99215.38;5022946;28;20041;-77
2023/03/24 11:52:22;;;;;;;13.18;1.77;;;;;;;8.54;65.19;99204.06;5045240;28;20053;-77
2023/03/24 11:54:48;;;;;;;;;;;;;;;8.54;64.86;99196.25;5052822;28;20428;-76